createdAt,value
2022-10-01T00:03:04.153Z,10.60
2022-10-01T00:08:05.735Z,10.54
2022-10-01T00:13:07.224Z,10.51
2022-10-01T00:18:10.618Z,10.49
2022-10-01T00:23:13.951Z,10.45
2022-10-01T00:28:15.502Z,10.42
2022-10-01T00:33:16.985Z,10.44
2022-10-01T00:38:18.432Z,10.47
2022-10-01T00:43:24.462Z,10.44
2022-10-01T00:48:29.391Z,10.46
2022-10-01T00:53:32.797Z,10.46
2022-10-01T00:58:34.267Z,10.48
2022-10-01T01:03:35.756Z,10.45
2022-10-01T01:08:37.245Z,10.47
2022-10-01T01:14:13.314Z,10.49
2022-10-01T01:19:36.180Z,10.54
2022-10-01T01:24:49.904Z,10.53
2022-10-01T01:30:06.710Z,10.56
2022-10-01T01:35:11.205Z,10.60
2022-10-01T01:40:16.400Z,10.63
2022-10-01T01:45:24.333Z,10.63
2022-10-01T01:50:29.420Z,10.62
2022-10-01T01:55:32.230Z,10.62
2022-10-01T02:00:33.750Z,10.64
2022-10-01T02:05:49.077Z,10.68
2022-10-01T02:11:15.343Z,10.69
2022-10-01T02:16:21.062Z,10.70
2022-10-01T02:21:32.859Z,10.70
2022-10-01T02:26:37.438Z,10.73
2022-10-01T02:31:41.140Z,10.79
2022-10-01T02:36:45.263Z,10.84
2022-10-01T02:41:48.111Z,10.88
2022-10-01T02:47:06.216Z,10.95
2022-10-01T02:52:40.596Z,11.01
2022-10-01T02:57:42.288Z,11.04
2022-10-01T03:02:43.786Z,11.08
2022-10-01T03:07:45.491Z,11.10
2022-10-01T03:12:47.011Z,11.14
2022-10-01T03:17:52.568Z,11.18
2022-10-01T03:22:54.018Z,11.22
2022-10-01T03:27:55.496Z,11.26
2022-10-01T03:32:56.948Z,11.29
2022-10-01T03:37:58.527Z,11.36
2022-10-01T03:43:00.001Z,11.38
2022-10-01T03:48:01.610Z,11.40
2022-10-01T03:53:03.066Z,11.45
2022-10-01T03:58:04.887Z,11.50
2022-10-01T04:03:06.774Z,11.57
2022-10-01T04:08:08.594Z,11.65
2022-10-01T04:13:10.097Z,11.71
2022-10-01T04:18:12.160Z,11.71
2022-10-01T04:23:13.810Z,11.67
2022-10-01T04:28:15.984Z,11.66
2022-10-01T04:33:17.575Z,11.69
2022-10-01T04:38:19.023Z,11.73
2022-10-01T04:43:20.505Z,11.76
2022-10-01T04:48:22.066Z,11.75
2022-10-01T04:53:23.635Z,11.83
2022-10-01T04:58:25.124Z,11.80
2022-10-01T05:03:26.651Z,11.78
2022-10-01T05:08:28.654Z,11.76
2022-10-01T05:13:31.841Z,11.75
2022-10-01T05:18:33.603Z,11.78
2022-10-01T05:23:35.085Z,11.78
2022-10-01T05:28:36.768Z,11.77
2022-10-01T05:33:38.410Z,11.76
2022-10-01T05:38:39.891Z,11.76
2022-10-01T05:43:41.371Z,11.74
2022-10-01T05:48:42.842Z,11.72
2022-10-01T05:53:50.551Z,11.71
2022-10-01T05:58:52.147Z,11.68
2022-10-01T06:03:53.602Z,11.66
2022-10-01T06:08:55.051Z,11.64
2022-10-01T06:13:56.501Z,11.66
2022-10-01T06:18:58.211Z,11.72
2022-10-01T06:23:59.803Z,11.76
2022-10-01T06:29:02.779Z,11.79
2022-10-01T06:34:04.351Z,11.86
2022-10-01T06:39:05.847Z,11.92
2022-10-01T06:44:07.511Z,11.99
2022-10-01T06:49:09.056Z,12.19
2022-10-01T06:54:10.695Z,12.54
2022-10-01T06:59:12.235Z,12.75
2022-10-01T07:04:13.741Z,12.79
2022-10-01T07:09:15.196Z,12.68
2022-10-01T07:14:16.658Z,12.51
2022-10-01T07:19:18.112Z,12.42
2022-10-01T07:24:19.590Z,12.29
2022-10-01T07:29:23.851Z,12.16
2022-10-01T07:34:31.027Z,12.04
2022-10-01T07:39:32.643Z,12.08
2022-10-01T07:44:34.155Z,12.19
2022-10-01T07:49:35.620Z,12.33
2022-10-01T07:54:37.100Z,12.51
2022-10-01T07:59:40.331Z,12.67
2022-10-01T08:05:00.787Z,12.81
2022-10-01T08:10:04.687Z,12.93
2022-10-01T08:15:08.234Z,13.14
2022-10-01T08:20:12.006Z,13.40
2022-10-01T08:25:13.447Z,13.63
2022-10-01T08:30:14.967Z,13.87
2022-10-01T08:35:16.491Z,14.11
2022-10-01T08:40:21.540Z,14.42
2022-10-01T08:45:52.977Z,14.80
2022-10-01T08:51:00.677Z,14.90
2022-10-01T08:56:03.970Z,15.01
2022-10-01T09:01:05.618Z,15.14
2022-10-01T09:06:17.989Z,15.12
2022-10-01T09:11:29.432Z,15.16
2022-10-01T09:16:41.027Z,14.94
2022-10-01T09:21:48.535Z,15.12
2022-10-01T09:26:50.317Z,14.91
2022-10-01T09:31:53.649Z,14.77
2022-10-01T09:37:08.022Z,15.10
2022-10-01T09:42:09.649Z,15.25
2022-10-01T09:47:20.230Z,15.03
2022-10-01T09:52:27.093Z,14.76
2022-10-01T09:57:33.738Z,15.24
2022-10-01T10:09:30.853Z,14.99
2022-10-01T10:14:36.185Z,15.51
2022-10-01T10:19:38.250Z,14.90
2022-10-01T10:24:39.794Z,14.53
2022-10-01T10:29:41.265Z,14.42
2022-10-01T10:34:47.006Z,14.44
2022-10-01T10:39:51.480Z,14.69
2022-10-01T10:44:56.619Z,15.13
2022-10-01T10:50:02.434Z,15.21
2022-10-01T10:55:23.393Z,15.27
2022-10-01T11:00:26.295Z,14.98
2022-10-01T11:05:32.049Z,14.97
2022-10-01T11:10:38.244Z,14.85
2022-10-01T11:16:18.258Z,14.69
2022-10-01T11:21:41.734Z,15.08
2022-10-01T11:27:01.154Z,15.31
2022-10-01T11:32:19.371Z,15.34
2022-10-01T11:37:53.155Z,15.50
2022-10-01T11:43:01.927Z,15.32
2022-10-01T11:48:41.421Z,15.07
2022-10-01T11:53:56.270Z,14.65
2022-10-01T11:59:08.128Z,14.51
2022-10-01T12:04:34.130Z,14.59
2022-10-01T12:09:55.881Z,14.65
2022-10-01T12:20:37.336Z,14.86
2022-10-01T12:26:05.370Z,14.89
2022-10-01T12:31:22.231Z,14.83
2022-10-01T12:36:37.061Z,14.71
2022-10-01T12:41:52.042Z,14.84
2022-10-01T12:47:21.757Z,14.84
2022-10-01T12:52:42.434Z,14.72
2022-10-01T12:58:04.001Z,14.85
2022-10-01T13:03:23.742Z,14.69
2022-10-01T13:08:31.125Z,14.58
2022-10-01T13:13:33.426Z,14.71
2022-10-01T13:18:35.974Z,14.98
2022-10-01T13:23:49.335Z,15.10
2022-10-01T13:29:02.545Z,15.21
2022-10-01T13:34:24.331Z,15.01
2022-10-01T13:39:36.584Z,15.10
2022-10-01T13:44:41.188Z,15.24
2022-10-01T13:49:42.932Z,15.28
2022-10-01T13:54:47.945Z,14.87
2022-10-01T13:59:58.802Z,14.67
2022-10-01T14:05:28.158Z,14.55
2022-10-01T14:10:59.455Z,14.49
2022-10-01T14:16:03.247Z,14.48
2022-10-01T14:21:20.109Z,14.52
2022-10-01T14:26:31.940Z,14.51
2022-10-01T14:31:59.092Z,14.63
2022-10-01T14:37:01.006Z,14.83
2022-10-01T14:42:16.987Z,14.72
2022-10-01T14:47:23.863Z,14.63
2022-10-01T14:52:31.354Z,14.45
2022-10-01T14:57:43.757Z,14.30
2022-10-01T15:02:49.407Z,14.32
2022-10-01T15:07:50.886Z,14.39
2022-10-01T15:12:53.684Z,14.42
2022-10-01T15:17:55.650Z,14.46
2022-10-01T15:23:01.279Z,14.49
2022-10-01T15:28:14.830Z,14.48
2022-10-01T15:33:27.722Z,14.39
2022-10-01T15:38:31.520Z,14.44
2022-10-01T15:43:37.565Z,14.49
2022-10-01T15:48:39.090Z,14.51
2022-10-01T15:53:40.964Z,14.50
2022-10-01T15:58:56.064Z,14.47
2022-10-01T16:04:09.946Z,14.39
2022-10-01T16:09:21.890Z,14.36
2022-10-01T16:14:47.269Z,14.31
2022-10-01T16:19:54.874Z,14.28
2022-10-01T16:25:01.755Z,14.25
2022-10-01T16:30:23.601Z,14.22
2022-10-01T16:35:32.496Z,14.24
2022-10-01T16:40:39.056Z,14.21
2022-10-01T16:45:42.733Z,14.21
2022-10-01T16:50:46.381Z,14.07
2022-10-01T16:55:48.070Z,13.91
2022-10-01T17:00:49.585Z,13.77
2022-10-01T17:05:51.189Z,13.67
2022-10-01T17:10:57.637Z,13.55
2022-10-01T17:16:00.315Z,13.51
2022-10-01T17:21:05.794Z,13.45
2022-10-01T17:26:08.870Z,13.42
2022-10-01T17:31:15.616Z,13.34
2022-10-01T17:36:19.341Z,13.30
2022-10-01T17:41:21.931Z,13.15
2022-10-01T17:46:23.503Z,13.01
2022-10-01T17:51:25.818Z,12.88
2022-10-01T17:56:27.532Z,12.86
2022-10-01T18:01:29.037Z,12.74
2022-10-01T18:06:30.926Z,12.69
2022-10-01T18:11:32.961Z,12.62
2022-10-01T18:16:34.959Z,12.52
2022-10-01T18:21:36.807Z,12.42
2022-10-01T18:26:38.688Z,12.39
2022-10-01T18:31:41.332Z,12.39
2022-10-01T18:37:01.468Z,12.30
2022-10-01T18:42:14.959Z,12.28
2022-10-01T18:47:25.455Z,12.23
2022-10-01T18:52:46.731Z,12.19
2022-10-01T18:58:30.163Z,12.16
2022-10-01T19:03:39.319Z,12.12
2022-10-01T19:09:03.815Z,12.02
2022-10-01T19:14:14.035Z,11.93
2022-10-01T19:19:38.122Z,11.97
2022-10-01T19:24:54.400Z,12.01
2022-10-01T19:30:10.538Z,12.16
2022-10-01T19:35:21.617Z,12.24
2022-10-01T19:40:49.365Z,12.31
2022-10-01T19:46:15.227Z,12.38
2022-10-01T19:51:21.765Z,12.40
2022-10-01T19:56:28.285Z,12.43
2022-10-01T20:01:39.290Z,12.41
2022-10-01T20:06:44.409Z,12.44
2022-10-01T20:12:30.938Z,12.43
2022-10-01T20:18:04.078Z,12.43
2022-10-01T20:23:20.590Z,12.46
2022-10-01T20:28:36.145Z,12.50
2022-10-01T20:34:10.092Z,12.52
2022-10-01T20:39:30.924Z,12.58
2022-10-01T20:44:36.378Z,12.52
2022-10-01T20:50:09.204Z,12.51
2022-10-01T20:55:18.586Z,12.49
2022-10-01T21:00:26.518Z,12.42
2022-10-01T21:05:35.250Z,12.40
2022-10-01T21:10:46.258Z,12.41
2022-10-01T21:15:53.633Z,12.41
2022-10-01T21:21:08.331Z,12.44
2022-10-01T21:26:35.513Z,12.45
2022-10-01T21:32:00.906Z,12.42
2022-10-01T21:37:14.306Z,12.43
2022-10-01T21:42:27.008Z,12.42
2022-10-01T21:47:49.650Z,12.39
2022-10-01T21:53:23.334Z,12.38
2022-10-01T21:58:39.922Z,12.39
2022-10-01T22:03:56.516Z,12.43
2022-10-01T22:09:16.298Z,12.47
2022-10-01T22:14:20.343Z,12.54
2022-10-01T22:19:28.491Z,12.60
2022-10-01T22:24:37.545Z,12.63
2022-10-01T22:29:44.424Z,12.64
2022-10-01T22:34:54.332Z,12.61
2022-10-01T22:40:02.896Z,12.60
2022-10-01T22:45:17.254Z,12.57
2022-10-01T22:50:42.794Z,12.57
2022-10-01T22:55:44.179Z,12.55
2022-10-01T23:01:22.508Z,12.57
2022-10-01T23:06:48.635Z,12.56
2022-10-01T23:12:08.485Z,12.53
2022-10-01T23:17:18.047Z,12.49
2022-10-01T23:22:37.134Z,12.44
2022-10-01T23:28:03.675Z,12.39
2022-10-01T23:33:05.114Z,12.32
2022-10-01T23:38:12.680Z,12.27
2022-10-01T23:43:13.967Z,12.20
2022-10-01T23:48:26.591Z,12.17
2022-10-01T23:53:35.802Z,12.22
2022-10-01T23:58:50.013Z,12.29
